71TS weather

CLOSED Circle C Ranch Airport
Saginaw, Texas, United States

Public forecast

Using degrees Fahrenheit for public forecast. Weather courtesy of forecast.io.

Closest aviation weather report (METAR) to Circle C Ranch Airport

Closest report is Fort Worth Alliance Airport, 5.7 nm (10.6 km) NNW. Retrieved 2019/10/23 17:53 UTC (1 hour ago):

KAFW 231753Z 18025G30KT 10SM CLR 25/11 A3001 RMK AO2 PK WND 18035/1712 SLP154 T02500111 10250 20111 58017

Closest aviation forecast (TAF) to Circle C Ranch Airport

Closest forecast is Fort Worth Alliance Airport, 5.7 nm (10.6 km) NNW. Retrieved 2019/10/23 18:33 UTC (38 minutes ago):

TAF KAFW 231730Z 2318/2418 18016G26KT P6SM SKC FM240000 16014KT P6SM SCT250 FM241400 16012KT P6SM VCSH BKN018